createdAt,value
2018-09-08T00:01:59.149Z,2.13
2018-09-08T00:04:25.842Z,1.97
2018-09-08T00:06:58.084Z,1.73
2018-09-08T00:09:24.800Z,1.80
2018-09-08T00:11:51.745Z,1.77
2018-09-08T00:14:18.638Z,1.70
2018-09-08T00:16:51.017Z,2.20
2018-09-08T00:19:23.542Z,2.10
2018-09-08T00:21:56.146Z,1.67
2018-09-08T00:24:28.482Z,1.70
2018-09-08T00:26:54.582Z,2.00
2018-09-08T00:29:24.773Z,1.77
2018-09-08T00:31:51.572Z,2.00
2018-09-08T00:34:18.310Z,2.10
2018-09-08T00:36:45.040Z,2.10
2018-09-08T00:39:11.754Z,1.87
2018-09-08T00:41:38.645Z,1.80
2018-09-08T00:44:05.332Z,2.00
2018-09-08T00:46:32.088Z,2.00
2018-09-08T00:48:58.969Z,1.80
2018-09-08T00:51:25.747Z,2.00
2018-09-08T00:53:52.540Z,1.90
2018-09-08T00:56:19.349Z,2.50
2018-09-08T00:58:51.572Z,2.00
2018-09-08T01:01:18.266Z,1.80
2018-09-08T01:03:45.009Z,1.90
2018-09-08T01:06:11.671Z,2.10
2018-09-08T01:08:38.377Z,1.90
2018-09-08T01:11:05.675Z,1.90
2018-09-08T01:13:32.325Z,2.10
2018-09-08T01:15:59.029Z,1.63
2018-09-08T01:18:25.729Z,1.83
2018-09-08T01:20:52.389Z,1.73
2018-09-08T01:23:19.612Z,2.00
2018-09-08T01:25:46.583Z,1.90
2018-09-08T01:28:14.265Z,2.10
2018-09-08T01:30:41.000Z,2.07
2018-09-08T01:33:07.674Z,2.07
2018-09-08T01:35:34.363Z,1.70
2018-09-08T01:38:01.126Z,1.97
2018-09-08T01:40:27.923Z,2.03
2018-09-08T01:42:54.568Z,2.17
2018-09-08T01:45:21.433Z,2.40
2018-09-08T01:47:48.401Z,2.03
2018-09-08T01:50:15.200Z,2.30
2018-09-08T01:52:42.009Z,2.00
2018-09-08T01:55:08.737Z,1.90
2018-09-08T01:57:35.531Z,2.20
2018-09-08T02:00:02.270Z,2.10
2018-09-08T02:02:29.040Z,1.80
2018-09-08T02:04:55.887Z,1.77
2018-09-08T02:07:22.576Z,1.73
2018-09-08T02:09:49.261Z,1.90
2018-09-08T02:12:15.980Z,1.87
2018-09-08T02:14:42.814Z,2.20
2018-09-08T02:17:09.877Z,1.87
2018-09-08T02:19:37.164Z,2.00
2018-09-08T02:22:03.838Z,1.80
2018-09-08T02:24:30.812Z,1.90
2018-09-08T02:26:57.626Z,2.00
2018-09-08T02:29:24.410Z,2.17
2018-09-08T02:31:51.606Z,1.90
2018-09-08T02:34:18.603Z,2.00
2018-09-08T02:36:45.372Z,2.10
2018-09-08T02:39:12.173Z,2.27
2018-09-08T02:41:39.602Z,1.90
2018-09-08T02:44:06.368Z,1.83
2018-09-08T02:46:33.332Z,2.07
2018-09-08T02:49:00.555Z,1.60
2018-09-08T02:51:27.340Z,2.13
2018-09-08T02:53:55.474Z,2.00
2018-09-08T02:56:22.860Z,2.40
2018-09-08T02:58:49.654Z,2.17
2018-09-08T03:01:16.378Z,2.03
2018-09-08T03:03:43.128Z,2.00
2018-09-08T03:06:10.009Z,1.93
2018-09-08T03:08:36.878Z,2.00
2018-09-08T03:11:03.583Z,2.40
2018-09-08T03:13:30.260Z,1.63
2018-09-08T03:15:56.996Z,1.83
2018-09-08T03:18:23.671Z,1.87
2018-09-08T03:20:50.389Z,2.17
2018-09-08T03:23:17.297Z,1.90
2018-09-08T03:25:44.177Z,1.90
2018-09-08T03:28:11.085Z,2.40
2018-09-08T03:30:38.396Z,2.30
2018-09-08T03:33:05.217Z,2.50
2018-09-08T03:35:32.041Z,2.13
2018-09-08T03:37:59.055Z,2.10
2018-09-08T03:40:25.877Z,2.00
2018-09-08T03:42:52.558Z,2.10
2018-09-08T03:45:19.812Z,2.00
2018-09-08T03:47:47.151Z,2.20
2018-09-08T03:50:13.997Z,2.13
2018-09-08T03:52:40.879Z,2.20
2018-09-08T03:55:07.763Z,2.03
2018-09-08T03:57:34.700Z,2.43
2018-09-08T04:00:01.411Z,2.00
2018-09-08T04:02:28.094Z,2.20
2018-09-08T04:04:54.822Z,2.10
2018-09-08T04:07:22.584Z,2.17
2018-09-08T04:09:49.360Z,2.10
2018-09-08T04:12:16.382Z,2.17
2018-09-08T04:14:43.366Z,2.20
2018-09-08T04:17:10.089Z,2.60
2018-09-08T04:19:37.080Z,2.40
2018-09-08T04:22:04.594Z,2.20
2018-09-08T04:24:31.322Z,2.10
2018-09-08T04:26:58.207Z,2.30
2018-09-08T04:29:25.428Z,2.17
2018-09-08T04:31:52.148Z,1.97
2018-09-08T04:34:18.974Z,1.90
2018-09-08T04:36:45.970Z,2.30
2018-09-08T04:39:13.186Z,2.27
2018-09-08T04:41:40.089Z,2.50
2018-09-08T04:44:07.359Z,2.20
2018-09-08T04:46:34.466Z,2.30
2018-09-08T04:49:01.438Z,2.00
2018-09-08T04:51:28.307Z,2.27
2018-09-08T04:53:55.016Z,2.40
2018-09-08T04:56:21.997Z,1.93
2018-09-08T04:58:49.432Z,2.10
2018-09-08T05:01:16.791Z,2.10
2018-09-08T05:03:44.396Z,2.80
2018-09-08T05:06:11.208Z,2.53
2018-09-08T05:08:37.952Z,2.17
2018-09-08T05:11:04.703Z,2.20
2018-09-08T05:13:31.438Z,2.37
2018-09-08T05:15:58.278Z,2.40
2018-09-08T05:18:25.070Z,2.37
2018-09-08T05:20:51.899Z,2.50
2018-09-08T05:23:18.600Z,2.73
2018-09-08T05:25:45.313Z,2.20
2018-09-08T05:28:12.121Z,2.20
2018-09-08T05:30:38.832Z,2.10
2018-09-08T05:33:05.682Z,2.53
2018-09-08T05:35:32.461Z,2.43
2018-09-08T05:37:59.452Z,2.17
2018-09-08T05:40:26.265Z,2.30
2018-09-08T05:42:53.061Z,2.40
2018-09-08T05:45:19.945Z,2.37
2018-09-08T05:47:46.705Z,2.40
2018-09-08T05:50:13.556Z,2.10
2018-09-08T05:52:40.427Z,2.10
2018-09-08T05:55:07.187Z,1.80
2018-09-08T05:57:34.035Z,1.70
2018-09-08T06:00:00.816Z,2.57
2018-09-08T06:02:27.663Z,2.17
2018-09-08T06:04:54.392Z,1.90
2018-09-08T06:07:21.177Z,1.83
2018-09-08T06:09:47.891Z,2.07
2018-09-08T06:12:14.784Z,2.30
2018-09-08T06:14:41.530Z,2.17
2018-09-08T06:17:08.564Z,2.30
2018-09-08T06:19:35.346Z,2.13
2018-09-08T06:22:02.121Z,2.57
2018-09-08T06:24:29.025Z,2.13
2018-09-08T06:26:55.742Z,2.57
2018-09-08T06:29:22.620Z,2.37
2018-09-08T06:31:49.461Z,2.30
2018-09-08T06:34:16.264Z,1.90
2018-09-08T06:36:43.361Z,1.90
2018-09-08T06:39:14.360Z,1.97
2018-09-08T06:41:41.257Z,1.80
2018-09-08T06:44:08.024Z,2.30
2018-09-08T06:46:34.867Z,2.20
2018-09-08T06:49:01.950Z,1.93
2018-09-08T06:51:28.733Z,2.03
2018-09-08T06:53:55.710Z,2.23
2018-09-08T06:56:22.589Z,2.10
2018-09-08T06:58:49.353Z,1.90
2018-09-08T07:01:16.174Z,2.13
2018-09-08T07:03:42.985Z,2.00
2018-09-08T07:06:09.782Z,2.37
2018-09-08T07:08:36.598Z,2.10
2018-09-08T07:11:03.390Z,1.90
2018-09-08T07:13:30.288Z,1.80
2018-09-08T07:15:57.072Z,2.13
2018-09-08T07:18:23.788Z,2.30
2018-09-08T07:20:50.647Z,1.87
2018-09-08T07:23:17.366Z,2.00
2018-09-08T07:25:44.152Z,1.73
2018-09-08T07:28:10.930Z,2.27
2018-09-08T07:30:37.661Z,2.13
2018-09-08T07:33:04.455Z,2.07
2018-09-08T07:35:31.186Z,2.07
2018-09-08T07:37:59.053Z,2.20
2018-09-08T07:40:25.882Z,1.90
2018-09-08T07:42:52.611Z,1.90
2018-09-08T07:45:19.318Z,1.97
2018-09-08T07:47:46.069Z,2.27
2018-09-08T07:50:12.907Z,1.90
2018-09-08T07:52:39.834Z,2.07
2018-09-08T07:55:06.752Z,2.03
2018-09-08T07:57:33.501Z,2.50
2018-09-08T08:00:01.457Z,1.87
2018-09-08T08:02:28.259Z,1.90
2018-09-08T08:04:55.060Z,1.67
2018-09-08T08:07:21.966Z,2.20
2018-09-08T08:09:48.843Z,2.03
2018-09-08T08:12:15.641Z,1.90
2018-09-08T08:14:42.518Z,1.83
2018-09-08T08:17:09.367Z,1.87
2018-09-08T08:19:36.693Z,1.93
2018-09-08T08:22:03.555Z,2.37
2018-09-08T08:24:30.277Z,1.63
2018-09-08T08:26:57.115Z,1.97
2018-09-08T08:29:23.895Z,2.00
2018-09-08T08:31:50.827Z,1.60
2018-09-08T08:34:17.799Z,2.40
2018-09-08T08:36:44.598Z,2.17
2018-09-08T08:39:11.493Z,2.00
2018-09-08T08:41:38.356Z,1.83
2018-09-08T08:44:05.199Z,2.00
2018-09-08T08:46:31.922Z,1.77
2018-09-08T08:48:58.699Z,1.80
2018-09-08T08:51:25.434Z,1.87
2018-09-08T08:53:52.327Z,1.37
2018-09-08T08:56:19.144Z,1.90
2018-09-08T08:58:45.956Z,1.80
2018-09-08T09:01:12.666Z,1.80
2018-09-08T09:03:39.412Z,1.80
2018-09-08T09:06:06.238Z,2.00
2018-09-08T09:08:33.570Z,1.87
2018-09-08T09:10:59.946Z,1.87
2018-09-08T09:13:27.279Z,1.73
2018-09-08T09:15:53.946Z,2.00
2018-09-08T09:18:21.048Z,1.50
2018-09-08T09:20:47.558Z,1.73
2018-09-08T09:23:14.765Z,1.77
2018-09-08T09:25:41.372Z,1.70
2018-09-08T09:28:08.064Z,1.87
2018-09-08T09:30:34.902Z,1.87
2018-09-08T09:33:01.764Z,1.77
2018-09-08T09:35:28.574Z,2.10
2018-09-08T09:37:55.363Z,1.90
2018-09-08T09:40:22.509Z,1.80
2018-09-08T09:42:49.331Z,1.63
2018-09-08T09:45:16.117Z,1.80
2018-09-08T09:47:42.925Z,1.80
2018-09-08T09:50:10.799Z,1.70
2018-09-08T09:52:37.713Z,1.60
2018-09-08T09:55:04.489Z,1.70
2018-09-08T09:57:31.241Z,1.60
2018-09-08T09:59:58.114Z,1.90
2018-09-08T10:02:39.321Z,1.77
2018-09-08T10:05:06.135Z,2.03
2018-09-08T10:07:32.909Z,1.60
2018-09-08T10:09:59.864Z,1.80
2018-09-08T10:12:26.647Z,1.60
2018-09-08T10:14:53.375Z,2.13
2018-09-08T10:17:20.100Z,1.70
2018-09-08T10:19:46.921Z,1.80
2018-09-08T10:22:13.635Z,1.50
2018-09-08T10:24:40.509Z,1.53
2018-09-08T10:27:07.281Z,1.70
2018-09-08T10:29:34.587Z,1.80
2018-09-08T10:32:01.179Z,1.63
2018-09-08T10:34:28.154Z,1.70
2018-09-08T10:36:54.934Z,1.80
2018-09-08T10:39:21.764Z,1.47
2018-09-08T10:41:48.616Z,1.90
2018-09-08T10:44:15.425Z,1.77
2018-09-08T10:46:42.180Z,1.50
2018-09-08T10:49:08.998Z,1.60
2018-09-08T10:51:35.981Z,1.70
2018-09-08T10:54:02.720Z,1.67
2018-09-08T10:56:29.510Z,1.50
2018-09-08T10:58:56.192Z,1.70
2018-09-08T11:01:23.001Z,1.80
2018-09-08T11:03:49.956Z,1.60
2018-09-08T11:06:16.889Z,1.70
2018-09-08T11:08:43.808Z,1.80
2018-09-08T11:11:10.561Z,1.50
2018-09-08T11:13:37.333Z,1.70
2018-09-08T11:16:04.106Z,1.90
2018-09-08T11:18:30.830Z,1.93
2018-09-08T11:20:57.671Z,2.10
2018-09-08T11:23:24.372Z,1.60
2018-09-08T11:25:51.139Z,2.30
2018-09-08T11:28:17.918Z,2.20
2018-09-08T11:30:44.849Z,1.87
2018-09-08T11:33:11.541Z,1.80
2018-09-08T11:35:38.308Z,2.10
2018-09-08T11:38:05.274Z,2.33
2018-09-08T11:40:31.965Z,2.17
2018-09-08T11:42:58.747Z,2.13
2018-09-08T11:45:25.578Z,2.23
2018-09-08T11:47:52.358Z,2.00
2018-09-08T11:50:19.125Z,1.87
2018-09-08T11:52:46.003Z,2.13
2018-09-08T11:55:12.878Z,2.20
2018-09-08T11:57:40.039Z,1.73
2018-09-08T12:00:06.858Z,1.87
2018-09-08T12:02:33.616Z,2.00
2018-09-08T12:05:00.439Z,1.90
2018-09-08T12:07:27.309Z,1.73
2018-09-08T12:09:54.172Z,1.90
2018-09-08T12:12:21.062Z,1.97
2018-09-08T12:14:47.762Z,1.83
2018-09-08T12:17:14.657Z,1.97
2018-09-08T12:19:41.534Z,2.10
2018-09-08T12:22:08.455Z,1.67
2018-09-08T12:24:35.159Z,1.80
2018-09-08T12:27:02.034Z,1.57
2018-09-08T12:29:28.765Z,2.20
2018-09-08T12:31:55.593Z,2.00
2018-09-08T12:34:22.347Z,1.70
2018-09-08T12:36:49.123Z,1.70
2018-09-08T12:39:16.023Z,1.43
2018-09-08T12:41:42.819Z,1.60
2018-09-08T12:44:09.588Z,1.97
2018-09-08T12:46:36.329Z,1.70
2018-09-08T12:49:03.161Z,2.17
2018-09-08T12:51:30.053Z,1.70
2018-09-08T12:53:56.889Z,1.70
2018-09-08T12:56:23.676Z,1.80
2018-09-08T12:58:50.421Z,1.83
2018-09-08T13:01:17.275Z,1.73
2018-09-08T13:03:44.259Z,1.80
2018-09-08T13:06:11.010Z,1.83
2018-09-08T13:08:37.766Z,1.50
2018-09-08T13:11:04.595Z,1.50
2018-09-08T13:13:31.313Z,1.67
2018-09-08T13:15:58.060Z,1.83
2018-09-08T13:18:24.724Z,1.83
2018-09-08T13:20:51.590Z,1.70
2018-09-08T13:23:18.320Z,1.57
2018-09-08T13:25:45.155Z,1.50
2018-09-08T13:28:11.965Z,1.80
2018-09-08T13:30:38.906Z,1.60
2018-09-08T13:33:05.739Z,2.07
2018-09-08T13:35:32.576Z,1.80
2018-09-08T13:37:59.410Z,1.60
2018-09-08T13:40:26.236Z,1.73
2018-09-08T13:42:52.972Z,1.63
2018-09-08T13:45:19.848Z,1.70
2018-09-08T13:47:46.596Z,2.00
2018-09-08T13:50:13.442Z,1.80
2018-09-08T13:52:40.281Z,1.77
2018-09-08T13:55:07.095Z,1.63
2018-09-08T13:57:33.974Z,1.50
2018-09-08T14:00:00.732Z,1.60
2018-09-08T14:02:27.603Z,1.50
2018-09-08T14:04:54.533Z,1.47
2018-09-08T14:07:21.537Z,1.23
2018-09-08T14:09:48.271Z,1.40
2018-09-08T14:12:15.012Z,1.50
2018-09-08T14:14:41.784Z,1.67
2018-09-08T14:17:08.565Z,1.47
2018-09-08T14:19:35.415Z,1.30
2018-09-08T14:22:02.213Z,1.33
2018-09-08T14:24:28.960Z,1.20
2018-09-08T14:26:56.049Z,1.47
2018-09-08T14:29:22.830Z,1.27
2018-09-08T14:31:49.650Z,1.27
2018-09-08T14:34:16.457Z,1.20
2018-09-08T14:36:43.225Z,1.40
2018-09-08T14:39:10.604Z,1.30
2018-09-08T14:41:37.415Z,1.20
2018-09-08T14:44:04.189Z,1.60
2018-09-08T14:46:30.953Z,1.33
2018-09-08T14:48:57.853Z,1.10
2018-09-08T14:51:24.662Z,1.07
2018-09-08T14:53:51.515Z,1.20
2018-09-08T14:56:18.427Z,1.13
2018-09-08T14:58:45.136Z,1.10
2018-09-08T15:01:12.197Z,1.37
2018-09-08T15:03:39.060Z,1.10
2018-09-08T15:06:05.983Z,1.10
2018-09-08T15:08:32.946Z,1.10
2018-09-08T15:10:59.806Z,1.10
2018-09-08T15:13:26.571Z,1.17
2018-09-08T15:15:53.326Z,1.23
2018-09-08T15:18:20.164Z,1.30
2018-09-08T15:20:47.016Z,0.90
2018-09-08T15:23:13.831Z,1.50
2018-09-08T15:25:40.556Z,1.00
2018-09-08T15:28:07.279Z,1.20
2018-09-08T15:30:34.159Z,1.17
2018-09-08T15:33:00.918Z,1.10
2018-09-08T15:35:27.771Z,1.03
2018-09-08T15:37:54.535Z,1.40
2018-09-08T15:40:21.407Z,0.93
2018-09-08T15:42:48.522Z,1.20
2018-09-08T15:45:15.459Z,1.10
2018-09-08T15:47:42.259Z,1.03
2018-09-08T15:52:42.493Z,1.23
2018-09-08T15:55:09.502Z,1.10
2018-09-08T15:57:36.408Z,1.30
2018-09-08T16:00:03.258Z,1.00
2018-09-08T16:02:29.977Z,1.10
2018-09-08T16:04:56.706Z,1.10
2018-09-08T16:07:23.600Z,1.10
2018-09-08T16:09:50.381Z,1.10
2018-09-08T16:12:17.123Z,1.20
2018-09-08T16:14:43.877Z,1.10
2018-09-08T16:17:10.743Z,1.30
2018-09-08T16:19:37.733Z,0.90
2018-09-08T16:22:04.572Z,1.23
2018-09-08T16:24:31.397Z,1.30
2018-09-08T16:26:58.092Z,1.03
2018-09-08T16:29:24.888Z,1.20
2018-09-08T16:31:51.794Z,1.13
2018-09-08T16:34:18.638Z,1.10
2018-09-08T16:36:45.376Z,1.07
2018-09-08T16:39:12.561Z,1.10
2018-09-08T16:41:39.360Z,1.20
2018-09-08T16:44:06.655Z,1.10
2018-09-08T16:46:33.423Z,1.33
2018-09-08T16:49:00.223Z,1.20
2018-09-08T16:51:27.035Z,1.13
2018-09-08T16:53:53.909Z,1.10
2018-09-08T16:56:20.729Z,0.80
2018-09-08T16:58:53.183Z,1.20
2018-09-08T17:01:19.973Z,1.00
2018-09-08T17:03:46.913Z,1.13
2018-09-08T17:06:13.702Z,1.23
2018-09-08T17:08:40.549Z,1.10
2018-09-08T17:11:07.377Z,1.07
2018-09-08T17:13:34.178Z,1.23
2018-09-08T17:16:01.029Z,1.17
2018-09-08T17:21:13.774Z,1.30
2018-09-08T17:23:40.647Z,0.90
2018-09-08T17:26:07.593Z,0.83
2018-09-08T17:28:34.476Z,1.07
2018-09-08T17:31:01.197Z,1.10
2018-09-08T17:33:28.571Z,1.07
2018-09-08T17:35:55.385Z,1.00
2018-09-08T17:38:22.797Z,1.10
2018-09-08T17:40:49.699Z,1.00
2018-09-08T17:43:16.459Z,1.03
2018-09-08T17:45:43.216Z,1.00
2018-09-08T17:48:10.022Z,1.10
2018-09-08T17:50:37.002Z,1.03
2018-09-08T17:53:04.641Z,1.20
2018-09-08T17:55:31.381Z,1.03
2018-09-08T17:57:58.193Z,1.20
2018-09-08T18:00:25.165Z,1.23
2018-09-08T18:02:52.065Z,1.30
2018-09-08T18:05:18.910Z,1.30
2018-09-08T18:07:45.676Z,1.17
2018-09-08T18:10:12.502Z,1.10
2018-09-08T18:12:39.300Z,1.00
2018-09-08T18:15:06.387Z,1.37
2018-09-08T18:17:33.132Z,1.20
2018-09-08T18:19:59.876Z,1.20
2018-09-08T18:22:26.574Z,1.10
2018-09-08T18:24:53.576Z,1.20
2018-09-08T18:27:20.351Z,1.40
2018-09-08T18:29:47.306Z,1.40
2018-09-08T18:32:14.505Z,1.30
2018-09-08T18:34:41.182Z,1.60
2018-09-08T18:37:07.944Z,1.50
2018-09-08T18:39:34.691Z,1.30
2018-09-08T18:42:01.822Z,1.30
2018-09-08T18:44:28.522Z,1.10
2018-09-08T18:46:55.646Z,1.57
2018-09-08T18:49:22.936Z,1.43
2018-09-08T18:51:49.696Z,1.60
2018-09-08T18:54:17.628Z,1.40
2018-09-08T18:56:44.646Z,1.37
2018-09-08T18:59:11.412Z,1.40
2018-09-08T19:01:38.248Z,1.10
2018-09-08T19:04:05.608Z,1.40
2018-09-08T19:06:32.419Z,1.20
2018-09-08T19:08:59.281Z,1.20
2018-09-08T19:11:26.002Z,1.23
2018-09-08T19:13:53.360Z,1.60
2018-09-08T19:16:20.203Z,1.50
2018-09-08T19:18:47.045Z,1.40
2018-09-08T19:21:14.018Z,1.40
2018-09-08T19:23:40.684Z,1.30
2018-09-08T19:26:08.066Z,1.30
2018-09-08T19:28:35.657Z,1.50
2018-09-08T19:31:02.704Z,1.40
2018-09-08T19:33:29.591Z,1.60
2018-09-08T19:35:56.876Z,1.90
2018-09-08T19:38:23.574Z,1.47
2018-09-08T19:40:50.487Z,1.20
2018-09-08T19:43:17.344Z,1.30
2018-09-08T19:45:44.169Z,1.40
2018-09-08T19:48:12.518Z,1.33
2018-09-08T19:50:39.219Z,1.30
2018-09-08T19:53:11.559Z,1.40
2018-09-08T19:55:39.433Z,1.50
2018-09-08T19:58:11.658Z,1.93
2018-09-08T20:00:38.410Z,1.60
2018-09-08T20:03:06.172Z,1.37
2018-09-08T20:05:33.001Z,1.50
2018-09-08T20:08:00.025Z,1.30
2018-09-08T20:10:27.361Z,1.33
2018-09-08T20:12:54.277Z,1.50
2018-09-08T20:15:21.102Z,1.40
2018-09-08T20:17:47.958Z,1.70
2018-09-08T20:20:14.844Z,1.50
2018-09-08T20:22:41.573Z,1.30
2018-09-08T20:25:08.313Z,1.23
2018-09-08T20:27:35.275Z,1.60
2018-09-08T20:30:02.223Z,1.37
2018-09-08T20:32:29.027Z,1.20
2018-09-08T20:34:55.963Z,1.50
2018-09-08T20:37:22.857Z,1.77
2018-09-08T20:39:50.076Z,1.63
2018-09-08T20:42:16.972Z,1.43
2018-09-08T20:44:44.480Z,1.67
2018-09-08T20:47:11.348Z,1.60
2018-09-08T20:49:38.167Z,1.50
2018-09-08T20:52:04.891Z,1.60
2018-09-08T20:54:31.685Z,1.47
2018-09-08T20:56:58.537Z,1.50
2018-09-08T20:59:27.013Z,1.43
2018-09-08T21:01:53.831Z,1.43
2018-09-08T21:04:20.544Z,1.53
2018-09-08T21:06:47.288Z,1.67
2018-09-08T21:09:15.115Z,1.53
2018-09-08T21:11:41.935Z,1.60
2018-09-08T21:14:08.785Z,1.60
2018-09-08T21:16:35.597Z,1.73
2018-09-08T21:19:02.650Z,1.80
2018-09-08T21:21:29.393Z,1.80
2018-09-08T21:23:56.177Z,1.37
2018-09-08T21:26:23.079Z,1.50
2018-09-08T21:28:50.074Z,1.30
2018-09-08T21:31:16.978Z,1.80
2018-09-08T21:33:43.725Z,1.70
2018-09-08T21:36:10.613Z,1.57
2018-09-08T21:38:37.551Z,1.80
2018-09-08T21:41:04.228Z,1.77
2018-09-08T21:43:30.919Z,1.60
2018-09-08T21:45:57.787Z,1.40
2018-09-08T21:48:24.624Z,1.60
2018-09-08T21:50:51.471Z,1.70
2018-09-08T21:53:18.348Z,1.70
2018-09-08T21:55:45.247Z,1.70
2018-09-08T21:58:11.968Z,1.73
2018-09-08T22:00:38.728Z,1.57
2018-09-08T22:03:05.689Z,1.77
2018-09-08T22:05:33.382Z,1.77
2018-09-08T22:08:00.098Z,1.73
2018-09-08T22:10:26.790Z,1.83
2018-09-08T22:12:53.511Z,1.80
2018-09-08T22:15:20.524Z,1.53
2018-09-08T22:17:47.235Z,1.70
2018-09-08T22:20:13.960Z,1.60
2018-09-08T22:22:40.724Z,1.33
2018-09-08T22:25:08.186Z,1.67
2018-09-08T22:27:34.938Z,2.00
2018-09-08T22:30:01.698Z,1.90
2018-09-08T22:32:28.439Z,1.67
2018-09-08T22:34:55.896Z,1.80
2018-09-08T22:37:22.839Z,1.57
2018-09-08T22:39:49.993Z,1.83
2018-09-08T22:42:17.521Z,1.83
2018-09-08T22:44:44.338Z,2.07
2018-09-08T22:47:11.000Z,1.90
2018-09-08T22:49:37.746Z,1.87
2018-09-08T22:52:04.483Z,1.80
2018-09-08T22:54:31.239Z,1.80
2018-09-08T22:56:58.070Z,1.70
2018-09-08T22:59:24.881Z,1.70
2018-09-08T23:01:51.778Z,2.00
2018-09-08T23:04:18.540Z,1.53
2018-09-08T23:06:45.289Z,1.70
2018-09-08T23:09:12.041Z,1.57
2018-09-08T23:11:38.876Z,1.90
2018-09-08T23:14:05.815Z,1.63
2018-09-08T23:16:32.761Z,2.00
2018-09-08T23:19:00.141Z,1.80
2018-09-08T23:21:27.456Z,1.90
2018-09-08T23:23:54.143Z,2.00
2018-09-08T23:26:21.003Z,1.90
2018-09-08T23:28:47.806Z,1.60
2018-09-08T23:31:14.597Z,1.73
2018-09-08T23:33:41.281Z,1.67
2018-09-08T23:36:08.009Z,2.07
2018-09-08T23:38:34.651Z,1.70
2018-09-08T23:41:01.394Z,1.77
2018-09-08T23:43:28.939Z,1.67
2018-09-08T23:45:55.661Z,1.97
2018-09-08T23:48:22.349Z,1.70
2018-09-08T23:50:49.081Z,1.97
2018-09-08T23:53:15.902Z,1.87
2018-09-08T23:55:42.604Z,2.20
2018-09-08T23:58:09.993Z,2.03
